createdAt,value
2022-12-20T00:01:35.614Z,1.92
2022-12-20T00:04:05.806Z,2.38
2022-12-20T00:06:36.913Z,2.03
2022-12-20T00:09:06.382Z,3.08
2022-12-20T00:11:33.520Z,2.42
2022-12-20T00:14:02.977Z,2.67
2022-12-20T00:16:30.428Z,2.00
2022-12-20T00:18:59.981Z,2.08
2022-12-20T00:21:27.943Z,1.55
2022-12-20T00:23:55.888Z,1.52
2022-12-20T00:26:25.951Z,2.60
2022-12-20T00:28:53.859Z,1.90
2022-12-20T00:31:24.971Z,2.42
2022-12-20T00:33:54.767Z,2.33
2022-12-20T00:36:23.721Z,1.73
2022-12-20T00:38:52.899Z,1.58
2022-12-20T00:41:25.749Z,1.77
2022-12-20T00:43:56.611Z,2.67
2022-12-20T00:46:25.100Z,1.55
2022-12-20T00:48:53.939Z,1.60
2022-12-20T00:51:27.337Z,1.33
2022-12-20T00:53:54.592Z,1.52
2022-12-20T00:56:25.980Z,1.67
2022-12-20T00:58:57.830Z,2.95
2022-12-20T01:01:27.696Z,1.15
2022-12-20T01:03:55.270Z,1.35
2022-12-20T01:06:26.504Z,1.52
2022-12-20T01:08:55.058Z,1.33
2022-12-20T01:11:30.720Z,2.67
2022-12-20T01:14:00.962Z,2.25
2022-12-20T01:16:37.871Z,2.08
2022-12-20T01:19:06.113Z,3.78
2022-12-20T01:21:33.879Z,2.05
2022-12-20T01:24:00.884Z,1.88
2022-12-20T01:26:29.377Z,2.47
2022-12-20T01:28:59.465Z,1.60
2022-12-20T01:31:28.291Z,1.48
2022-12-20T01:33:56.005Z,1.20
2022-12-20T01:36:29.372Z,1.48
2022-12-20T01:39:01.068Z,1.38
2022-12-20T01:41:29.574Z,1.37
2022-12-20T01:44:02.295Z,1.33
2022-12-20T01:46:33.711Z,1.52
2022-12-20T01:49:03.690Z,1.50
2022-12-20T01:51:34.213Z,1.33
2022-12-20T01:54:08.635Z,1.52
2022-12-20T01:56:36.415Z,1.20
2022-12-20T01:59:03.963Z,2.83
2022-12-20T02:01:31.289Z,2.25
2022-12-20T02:03:59.029Z,1.92
2022-12-20T02:06:27.993Z,1.70
2022-12-20T02:08:59.420Z,1.23
2022-12-20T02:11:51.051Z,2.87
2022-12-20T02:14:36.408Z,1.70
2022-12-20T02:17:12.481Z,1.40
2022-12-20T02:20:00.818Z,1.25
2022-12-20T02:23:03.285Z,2.45
2022-12-20T02:26:02.199Z,2.63
2022-12-20T02:29:15.505Z,4.15
2022-12-20T02:31:51.122Z,3.47
2022-12-20T02:34:22.036Z,3.47
2022-12-20T02:36:54.165Z,2.13
2022-12-20T02:39:24.839Z,1.77
2022-12-20T02:41:57.366Z,1.65
2022-12-20T02:44:47.215Z,2.40
2022-12-20T02:47:27.113Z,2.75
2022-12-20T02:49:55.850Z,2.17
2022-12-20T02:52:26.813Z,2.17
2022-12-20T02:54:55.611Z,2.47
2022-12-20T02:57:40.787Z,1.92
2022-12-20T03:00:20.116Z,1.45
2022-12-20T03:03:08.136Z,2.35
2022-12-20T03:05:44.776Z,3.75
2022-12-20T03:08:11.930Z,1.30
2022-12-20T03:10:39.173Z,1.92
2022-12-20T03:13:06.513Z,2.55
2022-12-20T03:15:35.577Z,1.50
2022-12-20T03:18:03.936Z,1.05
2022-12-20T03:20:31.310Z,1.13
2022-12-20T03:22:58.300Z,2.08
2022-12-20T03:25:25.742Z,2.58
2022-12-20T03:27:52.909Z,2.30
2022-12-20T03:30:26.826Z,1.67
2022-12-20T03:32:54.461Z,1.65
2022-12-20T03:35:21.713Z,2.35
2022-12-20T03:37:48.829Z,1.45
2022-12-20T03:40:16.362Z,2.15
2022-12-20T03:42:44.323Z,2.03
2022-12-20T03:45:11.746Z,1.73
2022-12-20T03:47:38.970Z,0.68
2022-12-20T03:50:07.360Z,1.50
2022-12-20T03:52:36.187Z,0.77
2022-12-20T03:55:05.273Z,1.73
2022-12-20T03:57:39.900Z,1.02
2022-12-20T04:00:19.103Z,1.13
2022-12-20T04:02:48.857Z,0.90
2022-12-20T04:05:16.818Z,1.13
2022-12-20T04:07:45.414Z,2.10
2022-12-20T04:10:12.927Z,2.53
2022-12-20T04:12:40.043Z,1.55
2022-12-20T04:15:11.435Z,1.85
2022-12-20T04:17:40.596Z,1.95
2022-12-20T04:20:19.161Z,1.55
2022-12-20T04:22:53.580Z,2.28
2022-12-20T04:25:21.551Z,1.80
2022-12-20T04:27:48.922Z,2.08
2022-12-20T04:30:16.186Z,1.58
2022-12-20T04:32:43.319Z,2.20
2022-12-20T04:35:11.442Z,1.70
2022-12-20T04:37:42.421Z,1.50
2022-12-20T04:40:10.528Z,2.33
2022-12-20T04:42:45.267Z,2.58
2022-12-20T04:45:14.173Z,2.08
2022-12-20T04:47:41.765Z,2.22
2022-12-20T04:50:11.051Z,2.42
2022-12-20T04:53:00.402Z,1.55
2022-12-20T04:55:27.797Z,2.70
2022-12-20T04:57:55.166Z,2.15
2022-12-20T05:00:24.672Z,2.08
2022-12-20T05:03:00.438Z,1.90
2022-12-20T05:05:28.171Z,1.60
2022-12-20T05:07:57.245Z,1.73
2022-12-20T05:10:25.051Z,1.80
2022-12-20T05:12:55.108Z,1.75
2022-12-20T05:15:32.501Z,1.23
2022-12-20T05:18:00.474Z,2.65
2022-12-20T05:20:35.401Z,1.70
2022-12-20T05:23:21.990Z,1.50
2022-12-20T05:26:12.364Z,2.45
2022-12-20T05:28:40.348Z,3.05
2022-12-20T05:31:07.614Z,2.65
2022-12-20T05:33:36.047Z,2.05
2022-12-20T05:36:05.016Z,1.70
2022-12-20T05:38:32.318Z,2.13
2022-12-20T05:41:00.383Z,1.40
2022-12-20T05:43:27.447Z,1.67
2022-12-20T05:45:54.521Z,1.48
2022-12-20T05:48:31.038Z,1.58
2022-12-20T05:50:58.722Z,2.75
2022-12-20T05:53:30.721Z,4.20
2022-12-20T05:56:01.696Z,2.50
2022-12-20T05:58:35.997Z,2.38
2022-12-20T06:01:07.369Z,2.97
2022-12-20T06:03:40.700Z,1.85
2022-12-20T06:06:14.958Z,1.55
2022-12-20T06:11:24.377Z,2.42
2022-12-20T06:14:08.633Z,0.93
2022-12-20T06:16:39.301Z,2.08
2022-12-20T06:19:09.148Z,0.95
2022-12-20T06:21:36.789Z,0.75
2022-12-20T06:24:04.461Z,1.13
2022-12-20T06:26:40.816Z,0.90
2022-12-20T06:29:14.238Z,1.15
2022-12-20T06:31:46.536Z,1.33
2022-12-20T06:34:14.232Z,1.30
2022-12-20T06:36:42.438Z,1.10
2022-12-20T06:39:18.987Z,1.02
2022-12-20T06:42:02.187Z,1.00
2022-12-20T06:44:29.350Z,1.40
2022-12-20T06:46:56.634Z,2.28
2022-12-20T06:49:33.513Z,1.50
2022-12-20T06:52:02.813Z,1.00
2022-12-20T06:54:40.864Z,1.13
2022-12-20T06:57:08.243Z,1.63
2022-12-20T06:59:35.699Z,1.23
2022-12-20T07:02:02.931Z,0.95
2022-12-20T07:04:30.160Z,1.40
2022-12-20T07:06:59.831Z,2.05
2022-12-20T07:09:26.839Z,1.95
2022-12-20T07:11:53.797Z,1.65
2022-12-20T07:14:20.833Z,1.65
2022-12-20T07:16:47.974Z,2.50
2022-12-20T07:19:15.756Z,1.30
2022-12-20T07:21:43.616Z,1.83
2022-12-20T07:24:13.106Z,2.85
2022-12-20T07:26:40.087Z,1.67
2022-12-20T07:29:11.913Z,2.10
2022-12-20T07:31:42.237Z,2.03
2022-12-20T07:34:09.440Z,1.90
2022-12-20T07:36:36.673Z,2.25
2022-12-20T07:39:04.278Z,1.85
2022-12-20T07:41:31.261Z,1.40
2022-12-20T07:43:59.491Z,2.10
2022-12-20T07:46:27.297Z,1.83
2022-12-20T07:48:55.451Z,1.35
2022-12-20T07:51:28.523Z,1.58
2022-12-20T07:54:24.761Z,2.17
2022-12-20T07:57:05.251Z,2.72
2022-12-20T07:59:49.403Z,1.55
2022-12-20T08:02:26.686Z,2.97
2022-12-20T08:04:55.387Z,1.90
2022-12-20T08:07:22.829Z,1.63
2022-12-20T08:09:50.057Z,1.92
2022-12-20T08:12:19.091Z,1.70
2022-12-20T08:14:46.335Z,1.40
2022-12-20T08:17:13.564Z,1.42
2022-12-20T08:19:40.653Z,2.58
2022-12-20T08:22:07.904Z,0.93
2022-12-20T08:24:35.180Z,2.33
2022-12-20T08:27:02.195Z,1.33
2022-12-20T08:29:29.471Z,1.60
2022-12-20T08:31:56.478Z,1.70
2022-12-20T08:34:26.570Z,1.92
2022-12-20T08:36:53.704Z,1.80
2022-12-20T08:39:20.663Z,2.72
2022-12-20T08:41:47.958Z,2.85
2022-12-20T08:44:15.134Z,2.03
2022-12-20T08:46:42.368Z,1.70
2022-12-20T08:49:09.569Z,2.55
2022-12-20T08:51:36.728Z,1.73
2022-12-20T08:54:03.888Z,1.58
2022-12-20T08:56:30.942Z,1.20
2022-12-20T08:58:57.928Z,1.98
2022-12-20T09:01:27.088Z,1.60
2022-12-20T09:03:54.501Z,2.30
2022-12-20T09:06:22.900Z,1.98
2022-12-20T09:08:50.036Z,2.25
2022-12-20T09:11:22.724Z,2.15
2022-12-20T09:13:53.845Z,2.20
2022-12-20T09:16:26.502Z,4.22
2022-12-20T09:19:02.483Z,3.35
2022-12-20T09:21:32.209Z,2.50
2022-12-20T09:23:59.483Z,4.07
2022-12-20T09:26:26.767Z,2.92
2022-12-20T09:28:54.361Z,2.55
2022-12-20T09:31:24.365Z,2.30
2022-12-20T09:33:55.039Z,2.72
2022-12-20T09:36:23.895Z,2.17
2022-12-20T09:38:51.532Z,1.80
2022-12-20T09:41:38.896Z,1.67
2022-12-20T09:44:26.016Z,1.92
2022-12-20T09:47:10.786Z,1.73
2022-12-20T09:49:42.317Z,2.05
2022-12-20T09:52:21.781Z,1.70
2022-12-20T09:54:59.044Z,2.22
2022-12-20T09:57:34.102Z,2.40
2022-12-20T10:00:03.633Z,2.80
2022-12-20T10:05:28.868Z,1.92
2022-12-20T10:08:04.158Z,1.83
2022-12-20T10:10:50.281Z,1.70
2022-12-20T10:13:52.920Z,1.35
2022-12-20T10:16:50.077Z,2.75
2022-12-20T10:19:38.912Z,2.03
2022-12-20T10:22:25.321Z,1.88
2022-12-20T10:25:23.103Z,2.17
2022-12-20T10:27:53.921Z,2.50
2022-12-20T10:30:23.407Z,3.10
2022-12-20T10:32:56.550Z,1.10
2022-12-20T10:35:37.630Z,1.60
2022-12-20T10:38:08.757Z,2.60
2022-12-20T10:43:53.855Z,2.55
2022-12-20T10:46:21.219Z,5.07
2022-12-20T10:48:50.238Z,4.18
2022-12-20T10:51:20.766Z,4.35
2022-12-20T10:53:52.845Z,2.30
2022-12-20T10:56:32.270Z,3.22
2022-12-20T10:59:17.775Z,3.45
2022-12-20T11:01:47.225Z,2.90
2022-12-20T11:04:33.217Z,1.58
2022-12-20T11:07:26.322Z,2.33
2022-12-20T11:09:58.181Z,2.47
2022-12-20T11:12:25.644Z,1.50
2022-12-20T11:15:36.474Z,2.85
2022-12-20T11:18:16.828Z,2.45
2022-12-20T11:21:07.390Z,2.67
2022-12-20T11:23:58.927Z,3.17
2022-12-20T11:31:31.453Z,2.05
2022-12-20T11:34:11.025Z,2.90
2022-12-20T11:37:17.126Z,2.15
2022-12-20T11:45:27.747Z,2.72
2022-12-20T11:54:03.363Z,2.05
2022-12-20T12:02:06.758Z,1.70
2022-12-20T12:10:23.751Z,2.00
2022-12-20T12:18:27.938Z,4.32
2022-12-20T12:22:03.090Z,2.80
2022-12-20T12:24:51.467Z,2.35
2022-12-20T12:27:39.195Z,4.03
2022-12-20T12:30:21.240Z,3.10
2022-12-20T12:33:25.830Z,2.85
2022-12-20T12:36:00.542Z,2.95
2022-12-20T12:39:09.296Z,4.53
2022-12-20T12:41:54.485Z,3.10
2022-12-20T12:44:50.884Z,2.72
2022-12-20T12:48:00.631Z,4.13
2022-12-20T12:50:35.095Z,3.33
2022-12-20T12:53:27.495Z,4.03
2022-12-20T13:02:35.798Z,3.17
2022-12-20T13:04:01.932Z,1.75
2022-12-20T13:06:29.107Z,4.70
2022-12-20T13:09:18.754Z,5.50
2022-12-20T13:11:53.721Z,3.45
2022-12-20T13:14:29.712Z,2.53
2022-12-20T13:17:12.278Z,4.63
2022-12-20T13:19:40.720Z,2.50
2022-12-20T13:22:22.195Z,1.92
2022-12-20T13:24:57.436Z,2.83
2022-12-20T13:27:24.796Z,2.72
2022-12-20T13:29:59.577Z,2.75
2022-12-20T13:32:55.803Z,2.45
2022-12-20T13:35:26.315Z,3.13
2022-12-20T13:38:47.160Z,3.65
2022-12-20T13:41:26.812Z,3.85
2022-12-20T13:44:09.739Z,4.28
2022-12-20T13:46:47.171Z,3.22
2022-12-20T13:52:46.824Z,3.60
2022-12-20T13:55:26.355Z,2.97
2022-12-20T13:57:54.421Z,3.08
2022-12-20T14:00:26.547Z,4.53
2022-12-20T14:02:55.120Z,3.00
2022-12-20T14:10:05.256Z,2.13
2022-12-20T14:16:22.134Z,2.63
2022-12-20T14:18:51.424Z,5.07
2022-12-20T14:21:19.380Z,2.47
2022-12-20T14:23:51.041Z,3.80
2022-12-20T14:26:23.126Z,2.88
2022-12-20T14:32:24.359Z,2.97
2022-12-20T14:34:59.895Z,2.63
2022-12-20T14:37:36.372Z,2.60
2022-12-20T14:40:13.869Z,2.65
2022-12-20T14:42:41.689Z,2.40
2022-12-20T14:45:14.350Z,2.20
2022-12-20T14:48:00.799Z,2.47
2022-12-20T14:50:31.701Z,2.75
2022-12-20T14:53:00.318Z,2.40
2022-12-20T14:55:37.488Z,3.42
2022-12-20T14:58:23.714Z,2.80
2022-12-20T15:01:15.912Z,5.57
2022-12-20T15:03:55.847Z,3.72
2022-12-20T15:06:41.401Z,3.15
2022-12-20T15:09:10.913Z,3.70
2022-12-20T15:11:39.052Z,3.00
2022-12-20T15:14:34.792Z,2.70
2022-12-20T15:21:55.877Z,3.80
2022-12-20T15:24:28.582Z,2.90
2022-12-20T15:27:02.952Z,4.22
2022-12-20T15:29:32.328Z,4.40
2022-12-20T15:32:24.202Z,3.28
2022-12-20T15:35:31.498Z,3.13
2022-12-20T15:37:58.571Z,3.60
2022-12-20T15:40:25.732Z,2.72
2022-12-20T16:03:57.706Z,2.85
2022-12-20T16:06:31.068Z,4.00
2022-12-20T16:09:20.119Z,4.97
2022-12-20T16:11:57.728Z,4.03
2022-12-20T16:14:24.853Z,4.20
2022-12-20T16:16:52.943Z,4.90
2022-12-20T16:19:20.337Z,3.33
2022-12-20T16:26:43.599Z,4.22
2022-12-20T16:29:10.844Z,3.50
2022-12-20T16:31:46.984Z,5.15
2022-12-20T16:34:30.113Z,5.07
2022-12-20T16:37:05.575Z,6.70
2022-12-20T17:17:42.969Z,6.68
2022-12-20T17:35:57.042Z,3.88
2022-12-20T17:43:50.239Z,8.15
2022-12-20T17:46:59.775Z,5.18
2022-12-20T18:14:49.071Z,8.30
2022-12-20T18:22:23.115Z,5.75
2022-12-20T18:33:22.107Z,5.47
2022-12-20T18:47:58.691Z,6.82
2022-12-20T19:09:59.477Z,5.80
2022-12-20T19:16:35.789Z,6.15
2022-12-20T19:23:31.549Z,7.35
2022-12-20T19:33:50.847Z,6.88
2022-12-20T19:37:13.504Z,6.32
2022-12-20T19:39:44.680Z,8.38
2022-12-20T19:46:00.805Z,8.15
2022-12-20T19:48:38.714Z,6.57
2022-12-20T20:34:36.723Z,9.90
2022-12-20T20:41:32.994Z,7.57
2022-12-20T20:44:13.430Z,7.00
2022-12-20T20:47:25.969Z,7.50
2022-12-20T20:56:37.259Z,11.18
2022-12-20T20:59:44.993Z,9.95
2022-12-20T21:02:18.798Z,11.80
2022-12-20T21:08:31.030Z,10.38
2022-12-20T21:11:40.150Z,12.27
2022-12-20T21:15:38.492Z,12.52
2022-12-20T21:24:55.322Z,12.55
2022-12-20T21:27:34.810Z,12.73
2022-12-20T21:30:08.015Z,15.68
2022-12-20T21:33:03.822Z,14.52
2022-12-20T21:35:33.085Z,12.55
2022-12-20T21:38:06.622Z,11.80
2022-12-20T21:40:37.469Z,12.02
2022-12-20T21:43:31.145Z,12.97
2022-12-20T21:49:07.534Z,10.68
2022-12-20T22:00:38.339Z,15.65
2022-12-20T22:12:38.129Z,16.90
2022-12-20T22:15:05.836Z,17.13
2022-12-20T22:17:33.654Z,15.60
2022-12-20T22:20:02.126Z,15.07
2022-12-20T22:22:35.550Z,16.92
2022-12-20T22:25:11.960Z,18.55
2022-12-20T22:27:42.263Z,18.65
2022-12-20T22:33:32.819Z,20.15
2022-12-20T22:36:00.476Z,17.85
2022-12-20T22:38:38.294Z,17.33
2022-12-20T22:49:04.142Z,17.20
2022-12-20T22:51:34.688Z,25.42
2022-12-20T22:54:02.572Z,24.15
2022-12-20T22:56:30.059Z,22.13
2022-12-20T22:59:01.845Z,26.13
2022-12-20T23:01:34.299Z,24.67
2022-12-20T23:06:58.894Z,21.73
2022-12-20T23:09:27.035Z,21.52
2022-12-20T23:12:21.929Z,21.75
2022-12-20T23:15:10.573Z,21.10
2022-12-20T23:17:39.618Z,18.55
2022-12-20T23:20:26.050Z,18.77
2022-12-20T23:22:53.182Z,22.25
2022-12-20T23:33:13.193Z,21.90
2022-12-20T23:36:18.227Z,19.58
2022-12-20T23:43:01.780Z,20.35
2022-12-20T23:54:33.295Z,29.38
2022-12-20T23:58:03.943Z,27.13
